Aviation Digital Data Service (ADDS)

Output produced by METARs form (1344 UTC 24 May 2019)
found at http://www.aviationweather.gov/metar/data/
 
KPHL 241120Z 2412/2518 30012G21KT P6SM SKC 
     FM241500 32019G27KT P6SM FEW050 FEW250 
     FM250000 35008KT P6SM FEW200 
     FM250300 03006KT P6SM FEW250 
     FM251400 15005KT P6SM FEW100 SCT150